createdAt,value
2023-02-26T00:01:30.860Z,99425.84
2023-02-26T00:04:01.056Z,99436.81
2023-02-26T00:06:29.180Z,99440.19
2023-02-26T00:08:56.927Z,99431.63
2023-02-26T00:11:24.482Z,99441.00
2023-02-26T00:13:52.016Z,99457.06
2023-02-26T00:16:28.648Z,99452.00
2023-02-26T00:18:58.107Z,99457.13
2023-02-26T00:21:26.528Z,99462.16
2023-02-26T00:23:54.086Z,99463.81
2023-02-26T00:26:23.410Z,99468.84
2023-02-26T00:28:50.862Z,99467.16
2023-02-26T00:31:21.178Z,99472.25
2023-02-26T00:33:48.404Z,99478.16
2023-02-26T00:36:24.799Z,99484.91
2023-02-26T00:39:15.473Z,99485.72
2023-02-26T00:41:43.022Z,99490.72
2023-02-26T00:44:10.444Z,99500.88
2023-02-26T00:47:05.502Z,99496.63
2023-02-26T00:49:45.431Z,99506.81
2023-02-26T00:52:27.242Z,99500.88
2023-02-26T00:54:54.468Z,99505.13
2023-02-26T00:57:21.613Z,99513.63
2023-02-26T00:59:48.740Z,99501.75
2023-02-26T01:02:15.806Z,99509.38
2023-02-26T01:04:43.102Z,99505.91
2023-02-26T01:07:11.004Z,99514.44
2023-02-26T01:09:38.776Z,99520.38
2023-02-26T01:12:09.292Z,99518.72
2023-02-26T01:14:37.139Z,99526.38
2023-02-26T01:17:22.857Z,99529.81
2023-02-26T01:19:54.704Z,99529.81
2023-02-26T01:23:03.569Z,99534.91
2023-02-26T01:25:55.008Z,99536.63
2023-02-26T01:28:22.488Z,99531.53
2023-02-26T01:30:51.579Z,99539.09
2023-02-26T01:33:35.534Z,99539.06
2023-02-26T01:36:15.783Z,99538.09
2023-02-26T01:39:01.487Z,99551.72
2023-02-26T01:41:39.101Z,99555.94
2023-02-26T01:44:08.631Z,99560.16
2023-02-26T01:47:05.104Z,99559.34
2023-02-26T01:49:34.352Z,99566.97
2023-02-26T01:52:03.597Z,99570.34
2023-02-26T01:54:38.863Z,99569.44
2023-02-26T01:57:12.821Z,99576.19
2023-02-26T01:59:43.267Z,99571.88
2023-02-26T02:02:13.702Z,99578.69
2023-02-26T02:04:42.410Z,99585.47
2023-02-26T02:07:09.791Z,99588.81
2023-02-26T02:09:37.034Z,99589.59
2023-02-26T02:12:22.705Z,99590.44
2023-02-26T02:15:06.055Z,99606.50
2023-02-26T02:17:36.212Z,99605.66
2023-02-26T02:20:25.380Z,99612.44
2023-02-26T02:23:18.787Z,99615.88
2023-02-26T02:25:48.792Z,99620.19
2023-02-26T02:28:28.131Z,99623.50
2023-02-26T02:31:10.842Z,99620.97
2023-02-26T02:33:50.111Z,99624.31
2023-02-26T02:36:31.696Z,99632.78
2023-02-26T02:39:04.970Z,99629.41
2023-02-26T02:41:39.397Z,99629.34
2023-02-26T02:44:12.695Z,99636.19
2023-02-26T02:46:42.211Z,99639.59
2023-02-26T02:49:22.620Z,99637.75
2023-02-26T02:51:57.220Z,99632.44
2023-02-26T02:54:36.316Z,99644.53
2023-02-26T02:57:16.331Z,99649.47
2023-02-26T02:59:49.563Z,99664.75
2023-02-26T03:02:40.716Z,99648.66
2023-02-26T03:05:08.252Z,99673.28
2023-02-26T03:07:43.808Z,99673.28
2023-02-26T03:10:12.294Z,99684.31
2023-02-26T03:12:39.373Z,99677.53
2023-02-26T03:15:08.254Z,99685.09
2023-02-26T03:17:54.079Z,99698.66
2023-02-26T03:20:36.738Z,99705.38
2023-02-26T03:23:15.532Z,99698.50
2023-02-26T03:25:57.532Z,99706.09
2023-02-26T03:28:40.694Z,99705.31
2023-02-26T03:31:13.857Z,99711.25
2023-02-26T03:33:58.689Z,99718.03
2023-02-26T03:36:44.833Z,99716.28
2023-02-26T03:39:45.747Z,99740.91
2023-02-26T03:42:32.377Z,99739.19
2023-02-26T03:45:06.001Z,99745.94
2023-02-26T03:47:35.310Z,99741.69
2023-02-26T03:50:08.824Z,99753.63
2023-02-26T03:52:49.205Z,99751.03
2023-02-26T03:56:00.581Z,99759.53
2023-02-26T03:58:46.415Z,99761.97
2023-02-26T04:01:49.346Z,99766.22
2023-02-26T04:04:55.758Z,99769.53
2023-02-26T04:07:23.654Z,99775.47
2023-02-26T04:09:52.394Z,99776.19
2023-02-26T04:12:25.385Z,99781.28
2023-02-26T04:14:55.792Z,99774.41
2023-02-26T04:17:23.151Z,99792.28
2023-02-26T04:19:50.460Z,99798.16
2023-02-26T04:22:18.419Z,99805.00
2023-02-26T04:24:46.091Z,99804.13
2023-02-26T04:27:15.030Z,99792.94
2023-02-26T04:29:42.237Z,99811.78
2023-02-26T04:32:09.484Z,99811.78
2023-02-26T04:34:36.655Z,99811.78
2023-02-26T04:37:04.892Z,99818.50
2023-02-26T04:39:32.237Z,99804.75
2023-02-26T04:41:59.331Z,99820.19
2023-02-26T04:44:26.453Z,99821.09
2023-02-26T04:46:53.571Z,99830.41
2023-02-26T04:49:20.822Z,99824.44
2023-02-26T04:51:48.114Z,99828.78
2023-02-26T04:54:16.414Z,99830.50
2023-02-26T04:56:43.573Z,99844.13
2023-02-26T04:59:10.768Z,99841.50
2023-02-26T05:01:38.031Z,99845.75
2023-02-26T05:04:08.017Z,99841.44
2023-02-26T05:06:35.809Z,99852.47
2023-02-26T05:09:03.134Z,99843.94
2023-02-26T05:11:30.912Z,99843.78
2023-02-26T05:13:58.108Z,99864.28
2023-02-26T05:16:25.607Z,99859.19
2023-02-26T05:18:53.046Z,99871.88
2023-02-26T05:21:22.730Z,99871.09
2023-02-26T05:23:51.126Z,99873.66
2023-02-26T05:26:18.194Z,99881.28
2023-02-26T05:28:46.005Z,99881.28
2023-02-26T05:31:13.962Z,99885.44
2023-02-26T05:33:41.649Z,99887.97
2023-02-26T05:36:09.475Z,99902.47
2023-02-26T05:38:36.896Z,99890.59
2023-02-26T05:41:04.182Z,99898.22
2023-02-26T05:43:31.560Z,99901.69
2023-02-26T05:45:58.705Z,99913.56
2023-02-26T05:48:25.941Z,99906.78
2023-02-26T05:50:53.180Z,99910.16
2023-02-26T05:53:20.549Z,99922.09
2023-02-26T05:55:48.174Z,99925.56
2023-02-26T05:58:15.930Z,99923.94
2023-02-26T06:00:43.257Z,99932.44
2023-02-26T06:03:10.398Z,99937.53
2023-02-26T06:05:37.579Z,99930.72
2023-02-26T06:08:05.892Z,99938.56
2023-02-26T06:10:33.352Z,99943.66
2023-02-26T06:13:00.513Z,99944.59
2023-02-26T06:15:27.748Z,99949.69
2023-02-26T06:17:54.870Z,99948.75
2023-02-26T06:20:21.934Z,99970.94
2023-02-26T06:22:48.985Z,99973.47
2023-02-26T06:25:16.138Z,99977.72
2023-02-26T06:27:43.236Z,99983.66
2023-02-26T06:30:11.265Z,99985.44
2023-02-26T06:32:38.516Z,99985.53
2023-02-26T06:35:06.575Z,99992.34
2023-02-26T06:37:33.741Z,99994.06
2023-02-26T06:40:00.863Z,99995.69
2023-02-26T06:42:27.934Z,100004.31
2023-02-26T06:44:55.107Z,100004.31
2023-02-26T06:47:23.024Z,100009.53
2023-02-26T06:49:50.108Z,100011.22
2023-02-26T06:52:17.299Z,100018.22
2023-02-26T06:54:44.509Z,100021.66
2023-02-26T06:57:11.736Z,100018.22
2023-02-26T06:59:38.858Z,100038.69
2023-02-26T07:02:05.965Z,100037.84
2023-02-26T07:04:33.104Z,100047.19
2023-02-26T07:07:00.227Z,100042.09
2023-02-26T07:09:27.365Z,100042.09
2023-02-26T07:11:54.430Z,100055.78
2023-02-26T07:14:21.575Z,100055.03
2023-02-26T07:16:48.800Z,100061.88
2023-02-26T07:19:16.501Z,100060.34
2023-02-26T07:21:43.741Z,100066.34
2023-02-26T07:24:10.850Z,100062.81
2023-02-26T07:26:37.980Z,100076.50
2023-02-26T07:29:05.161Z,100067.06
2023-02-26T07:31:32.545Z,100084.19
2023-02-26T07:33:59.756Z,100083.25
2023-02-26T07:36:27.365Z,100095.25
2023-02-26T07:38:54.818Z,100101.22
2023-02-26T07:41:21.983Z,100105.50
2023-02-26T07:43:50.648Z,100112.31
2023-02-26T07:46:17.892Z,100115.69
2023-02-26T07:48:44.966Z,100117.41
2023-02-26T07:51:12.147Z,100112.22
2023-02-26T07:53:39.336Z,100127.44
2023-02-26T07:56:06.460Z,100127.50
2023-02-26T07:58:33.748Z,100124.03
2023-02-26T08:01:01.009Z,100136.75
2023-02-26T08:03:28.152Z,100141.16
2023-02-26T08:05:55.318Z,100144.38
2023-02-26T08:08:22.552Z,100142.78
2023-02-26T08:10:49.752Z,100148.03
2023-02-26T08:13:16.952Z,100146.41
2023-02-26T08:15:44.404Z,100160.22
2023-02-26T08:18:12.535Z,100168.75
2023-02-26T08:20:39.970Z,100172.09
2023-02-26T08:23:07.436Z,100177.13
2023-02-26T08:25:34.607Z,100183.13
2023-02-26T08:28:03.452Z,100194.16
2023-02-26T08:30:31.168Z,100190.69
2023-02-26T08:32:58.279Z,100199.03
2023-02-26T08:35:25.447Z,100201.66
2023-02-26T08:37:53.058Z,100196.72
2023-02-26T08:40:20.419Z,100197.66
2023-02-26T08:42:48.195Z,100201.03
2023-02-26T08:45:15.559Z,100212.16
2023-02-26T08:47:55.520Z,100221.56
2023-02-26T08:50:24.145Z,100225.03
2023-02-26T08:52:51.404Z,100235.31
2023-02-26T08:55:18.612Z,100223.47
2023-02-26T08:57:45.743Z,100227.97
2023-02-26T09:00:16.482Z,100225.78
2023-02-26T09:02:43.639Z,100234.72
2023-02-26T09:05:12.322Z,100244.97
2023-02-26T09:07:39.669Z,100250.16
2023-02-26T09:10:08.062Z,100253.69
2023-02-26T09:12:38.492Z,100255.50
2023-02-26T09:15:07.420Z,100255.50
2023-02-26T09:17:35.220Z,100260.09
2023-02-26T09:20:03.012Z,100268.16
2023-02-26T09:22:30.232Z,100266.59
2023-02-26T09:24:57.671Z,100274.53
2023-02-26T09:27:25.428Z,100269.41
2023-02-26T09:29:52.544Z,100278.00
2023-02-26T09:32:19.860Z,100287.53
2023-02-26T09:34:47.077Z,100286.75
2023-02-26T09:37:14.303Z,100289.31
2023-02-26T09:39:41.538Z,100296.25
2023-02-26T09:42:14.489Z,100308.25
2023-02-26T09:44:42.114Z,100280.63
2023-02-26T09:47:24.972Z,100302.91
2023-02-26T09:49:58.210Z,100313.19
2023-02-26T09:52:28.260Z,100325.03
2023-02-26T09:55:16.702Z,100334.34
2023-02-26T09:57:46.126Z,100330.81
2023-02-26T10:00:38.551Z,100329.94
2023-02-26T10:03:14.548Z,100344.28
2023-02-26T10:06:09.044Z,100346.78
2023-02-26T10:09:04.398Z,100352.06
2023-02-26T10:11:50.175Z,100356.44
2023-02-26T10:14:24.746Z,100355.66
2023-02-26T10:16:55.451Z,100363.38
2023-02-26T10:19:29.288Z,100372.81
2023-02-26T10:22:22.442Z,100369.50
2023-02-26T10:24:54.530Z,100374.59
2023-02-26T10:27:31.549Z,100382.25
2023-02-26T10:30:03.085Z,100383.88
2023-02-26T10:32:41.467Z,100388.00
2023-02-26T10:35:19.204Z,100395.56
2023-02-26T10:38:05.170Z,100393.00
2023-02-26T10:40:41.595Z,100394.69
2023-02-26T10:43:30.248Z,100395.66
2023-02-26T10:46:12.429Z,100404.28
2023-02-26T10:48:59.860Z,100406.16
2023-02-26T10:51:35.339Z,100413.94
2023-02-26T10:54:17.450Z,100407.97
2023-02-26T10:56:44.584Z,100414.00
2023-02-26T10:59:11.732Z,100419.13
2023-02-26T11:01:39.133Z,100425.97
2023-02-26T11:04:10.177Z,100419.97
2023-02-26T11:06:45.476Z,100429.41
2023-02-26T11:09:34.159Z,100427.69
2023-02-26T11:12:14.839Z,100434.44
2023-02-26T11:14:48.683Z,100433.22
2023-02-26T11:17:23.318Z,100442.28
2023-02-26T11:20:15.914Z,100433.25
2023-02-26T11:22:49.361Z,100434.91
2023-02-26T11:25:22.877Z,100445.75
2023-02-26T11:28:01.778Z,100446.25
2023-02-26T11:30:32.344Z,100456.91
2023-02-26T11:33:07.097Z,100456.75
2023-02-26T11:35:34.218Z,100472.00
2023-02-26T11:38:03.201Z,100468.63
2023-02-26T11:40:39.095Z,100472.16
2023-02-26T11:43:28.617Z,100463.91
2023-02-26T11:45:59.607Z,100466.56
2023-02-26T11:48:37.909Z,100470.16
2023-02-26T11:51:07.548Z,100475.50
2023-02-26T11:53:37.815Z,100469.59
2023-02-26T11:56:12.095Z,100471.31
2023-02-26T11:58:43.320Z,100472.94
2023-02-26T12:01:13.370Z,100471.09
2023-02-26T12:03:46.383Z,100476.84
2023-02-26T12:06:25.026Z,100489.47
2023-02-26T12:08:53.643Z,100497.03
2023-02-26T12:11:26.586Z,100492.66
2023-02-26T12:14:09.137Z,100504.44
2023-02-26T12:16:54.851Z,100504.44
2023-02-26T12:19:58.603Z,100513.88
2023-02-26T12:22:55.469Z,100513.94
2023-02-26T12:25:51.608Z,100520.09
2023-02-26T12:28:39.898Z,100515.31
2023-02-26T12:31:16.845Z,100506.91
2023-02-26T12:34:06.428Z,100513.81
2023-02-26T12:37:04.451Z,100520.78
2023-02-26T12:39:48.574Z,100525.09
2023-02-26T12:42:23.029Z,100527.66
2023-02-26T12:45:27.752Z,100530.97
2023-02-26T12:48:27.305Z,100532.53
2023-02-26T12:51:28.862Z,100542.50
2023-02-26T12:54:36.412Z,100539.03
2023-02-26T12:57:21.697Z,100546.72
2023-02-26T13:00:13.108Z,100554.44
2023-02-26T13:03:04.213Z,100551.84
2023-02-26T13:06:03.460Z,100545.88
2023-02-26T13:08:49.232Z,100561.34
2023-02-26T13:11:29.679Z,100560.56
2023-02-26T13:14:24.508Z,100559.75
2023-02-26T13:16:54.459Z,100568.28
2023-02-26T13:19:48.615Z,100575.03
2023-02-26T13:22:39.161Z,100564.66
2023-02-26T13:25:19.730Z,100581.72
2023-02-26T13:27:49.080Z,100592.63
2023-02-26T13:30:22.118Z,100592.53
2023-02-26T13:32:53.666Z,100577.81
2023-02-26T13:35:39.413Z,100598.34
2023-02-26T13:38:35.910Z,100594.88
2023-02-26T13:41:12.961Z,100596.63
2023-02-26T13:43:58.780Z,100598.25
2023-02-26T13:46:28.728Z,100600.75
2023-02-26T13:49:04.126Z,100601.66
2023-02-26T13:51:39.130Z,100606.84
2023-02-26T13:54:13.281Z,100611.94
2023-02-26T13:56:40.773Z,100610.28
2023-02-26T13:59:15.153Z,100612.03
2023-02-26T14:01:50.204Z,100628.13
2023-02-26T14:04:20.306Z,100623.78
2023-02-26T14:06:49.327Z,100618.59
2023-02-26T14:09:22.301Z,100620.41
2023-02-26T14:11:55.174Z,100628.91
2023-02-26T14:14:22.396Z,100618.59
2023-02-26T14:17:08.170Z,100604.91
2023-02-26T14:20:08.779Z,100618.50
2023-02-26T14:22:42.071Z,100625.34
2023-02-26T14:25:18.439Z,100626.19
2023-02-26T14:27:48.137Z,100632.00
2023-02-26T14:30:34.841Z,100633.75
2023-02-26T14:33:03.805Z,100642.28
2023-02-26T14:35:41.107Z,100645.75
2023-02-26T14:38:13.739Z,100644.13
2023-02-26T14:40:46.827Z,100649.94
2023-02-26T14:43:22.389Z,100643.97
2023-02-26T14:45:50.855Z,100650.78
2023-02-26T14:48:22.089Z,100650.78
2023-02-26T14:50:55.417Z,100644.84
2023-02-26T14:53:37.602Z,100649.22
2023-02-26T14:56:07.752Z,100650.97
2023-02-26T14:58:56.312Z,100654.34
2023-02-26T15:01:55.791Z,100648.16
2023-02-26T15:04:52.418Z,100667.66
2023-02-26T15:07:39.732Z,100677.84
2023-02-26T15:10:10.128Z,100676.81
2023-02-26T15:12:37.133Z,100684.41
2023-02-26T15:15:18.973Z,100691.91
2023-02-26T15:18:12.002Z,100690.03
2023-02-26T15:20:51.104Z,100692.41
2023-02-26T15:23:23.999Z,100695.66
2023-02-26T15:25:51.590Z,100695.56
2023-02-26T15:28:31.789Z,100702.34
2023-02-26T15:31:01.087Z,100703.97
2023-02-26T15:33:30.661Z,100677.84
2023-02-26T15:35:59.367Z,100714.09
2023-02-26T15:38:27.020Z,100714.06
2023-02-26T15:40:58.417Z,100720.81
2023-02-26T15:43:28.562Z,100725.91
2023-02-26T15:45:58.817Z,100725.72
2023-02-26T15:48:32.910Z,100720.53
2023-02-26T15:51:03.497Z,100730.84
2023-02-26T15:53:51.714Z,100737.53
2023-02-26T15:56:24.695Z,100740.00
2023-02-26T15:59:14.931Z,100735.59
2023-02-26T16:01:42.312Z,100742.34
2023-02-26T16:04:15.378Z,100743.97
2023-02-26T16:06:53.102Z,100748.16
2023-02-26T16:09:30.264Z,100751.53
2023-02-26T16:12:01.148Z,100752.31
2023-02-26T16:14:34.286Z,100755.59
2023-02-26T16:17:01.844Z,100759.88
2023-02-26T16:19:44.898Z,100765.72
2023-02-26T16:22:50.416Z,100769.03
2023-02-26T16:25:24.986Z,100767.31
2023-02-26T16:28:02.268Z,100765.47
2023-02-26T16:30:38.681Z,100781.78
2023-02-26T16:33:15.450Z,100771.31
2023-02-26T16:35:47.662Z,100787.72
2023-02-26T16:38:25.057Z,100789.44
2023-02-26T16:40:59.901Z,100797.06
2023-02-26T16:43:45.498Z,100803.00
2023-02-26T16:46:16.921Z,100799.53
2023-02-26T16:48:48.806Z,100806.34
2023-02-26T16:51:20.684Z,100809.72
2023-02-26T16:53:58.353Z,100806.34
2023-02-26T16:56:32.135Z,100810.59
2023-02-26T16:59:17.093Z,100816.56
2023-02-26T17:02:01.094Z,100807.25
2023-02-26T17:04:37.229Z,100810.59
2023-02-26T17:07:46.245Z,100824.09
2023-02-26T17:10:24.703Z,100823.06
2023-02-26T17:12:53.973Z,100831.44
2023-02-26T17:15:32.782Z,100835.72
2023-02-26T17:18:00.203Z,100839.91
2023-02-26T17:20:29.646Z,100833.91
2023-02-26T17:22:58.692Z,100835.59
2023-02-26T17:25:36.863Z,100836.31
2023-02-26T17:28:04.671Z,100849.00
2023-02-26T17:30:33.754Z,100851.50
2023-02-26T17:33:03.561Z,100858.44
2023-02-26T17:35:31.687Z,100865.25
2023-02-26T17:38:00.804Z,100865.25
2023-02-26T17:40:31.990Z,100872.00
2023-02-26T17:43:00.287Z,100866.91
2023-02-26T17:45:27.464Z,100868.53
2023-02-26T17:47:54.783Z,100870.25
2023-02-26T17:50:30.393Z,100867.59
2023-02-26T17:52:58.256Z,100868.41
2023-02-26T17:55:25.506Z,100869.81
2023-02-26T17:57:52.853Z,100887.03
2023-02-26T18:00:20.254Z,100890.31
2023-02-26T18:02:47.382Z,100882.44
2023-02-26T18:05:14.574Z,100888.44
2023-02-26T18:07:41.893Z,100891.69
2023-02-26T18:10:17.020Z,100891.56
2023-02-26T18:12:44.194Z,100893.06
2023-02-26T18:15:11.961Z,100891.34
2023-02-26T18:17:39.551Z,100891.94
2023-02-26T18:20:09.302Z,100895.44
2023-02-26T18:22:36.452Z,100903.84
2023-02-26T18:25:03.698Z,100904.66
2023-02-26T18:27:30.902Z,100904.66
2023-02-26T18:29:59.462Z,100898.56
2023-02-26T18:32:28.145Z,100899.31
2023-02-26T18:34:55.409Z,100899.31
2023-02-26T18:37:26.203Z,100902.53
2023-02-26T18:39:53.719Z,100904.28
2023-02-26T18:42:26.462Z,100911.78
2023-02-26T18:44:54.933Z,100909.25
2023-02-26T18:47:23.144Z,100909.13
2023-02-26T18:49:52.145Z,100924.53
2023-02-26T18:52:19.652Z,100919.31
2023-02-26T18:54:46.824Z,100919.19
2023-02-26T18:57:15.496Z,100934.84
2023-02-26T18:59:42.605Z,100931.38
2023-02-26T19:02:13.916Z,100931.38
2023-02-26T19:04:41.962Z,100933.00
2023-02-26T19:07:09.178Z,100929.50
2023-02-26T19:09:36.523Z,100938.59
2023-02-26T19:12:04.372Z,100943.59
2023-02-26T19:14:32.106Z,100938.47
2023-02-26T19:16:59.621Z,100941.81
2023-02-26T19:19:26.878Z,100941.69
2023-02-26T19:21:54.142Z,100944.19
2023-02-26T19:24:21.335Z,100948.47
2023-02-26T19:26:49.377Z,100930.28
2023-02-26T19:29:19.018Z,100943.50
2023-02-26T19:31:46.935Z,100943.56
2023-02-26T19:34:14.517Z,100954.63
2023-02-26T19:36:48.432Z,100956.34
2023-02-26T19:39:17.255Z,100966.53
2023-02-26T19:41:46.184Z,100967.47
2023-02-26T19:44:13.475Z,100971.75
2023-02-26T19:46:42.129Z,100972.69
2023-02-26T19:49:12.583Z,100980.44
2023-02-26T19:51:40.324Z,100968.41
2023-02-26T19:54:07.688Z,100982.22
2023-02-26T19:56:34.969Z,100983.06
2023-02-26T19:59:02.637Z,100987.16
2023-02-26T20:01:30.219Z,101000.69
2023-02-26T20:03:58.123Z,100998.97
2023-02-26T20:06:25.840Z,101000.69
2023-02-26T20:08:53.146Z,101000.69
2023-02-26T20:11:20.750Z,101010.75
2023-02-26T20:13:48.266Z,101010.84
2023-02-26T20:16:16.135Z,101012.50
2023-02-26T20:18:45.942Z,101013.44
2023-02-26T20:21:14.079Z,101013.44
2023-02-26T20:23:42.009Z,101014.25
2023-02-26T20:26:12.443Z,101018.59
2023-02-26T20:28:40.337Z,101022.16
2023-02-26T20:31:08.347Z,101029.78
2023-02-26T20:33:39.752Z,101025.56
2023-02-26T20:36:08.731Z,101028.06
2023-02-26T20:38:36.389Z,101036.59
2023-02-26T20:41:04.008Z,101040.06
2023-02-26T20:43:31.460Z,101039.16
2023-02-26T20:45:58.611Z,101043.47
2023-02-26T20:48:26.000Z,101039.22
2023-02-26T20:50:53.889Z,101040.91
2023-02-26T20:53:22.262Z,101047.75
2023-02-26T20:55:49.495Z,101044.25
2023-02-26T20:58:17.081Z,101041.69
2023-02-26T21:00:44.595Z,101043.34
2023-02-26T21:03:11.843Z,101041.69
2023-02-26T21:05:39.300Z,101048.56
2023-02-26T21:08:06.507Z,101049.28
2023-02-26T21:10:33.793Z,101047.63
2023-02-26T21:13:01.065Z,101050.16
2023-02-26T21:15:28.341Z,101050.16
2023-02-26T21:17:55.484Z,101052.72
2023-02-26T21:20:23.556Z,101051.88
2023-02-26T21:22:51.473Z,101057.88
2023-02-26T21:25:18.712Z,101055.13
2023-02-26T21:27:45.975Z,101053.44
2023-02-26T21:30:14.788Z,101058.47
2023-02-26T21:32:42.828Z,101057.59
2023-02-26T21:35:16.064Z,101065.19
2023-02-26T21:37:46.981Z,101070.28
2023-02-26T21:40:15.601Z,101072.00
2023-02-26T21:42:43.535Z,101069.34
2023-02-26T21:45:11.656Z,101069.22
2023-02-26T21:47:39.430Z,101075.38
2023-02-26T21:50:07.348Z,101036.91
2023-02-26T21:52:34.722Z,101087.31
2023-02-26T21:55:02.034Z,101083.94
2023-02-26T21:57:29.736Z,101083.19
2023-02-26T21:59:56.972Z,101082.19
2023-02-26T22:02:24.496Z,101078.09
2023-02-26T22:04:51.703Z,101087.56
2023-02-26T22:07:20.079Z,101086.69
2023-02-26T22:09:49.154Z,101090.91
2023-02-26T22:12:17.414Z,101089.19
2023-02-26T22:14:44.812Z,101094.13
2023-02-26T22:17:11.968Z,101100.03
2023-02-26T22:19:39.065Z,101099.09
2023-02-26T22:22:06.540Z,101103.19
2023-02-26T22:24:33.681Z,101106.56
2023-02-26T22:27:00.808Z,101109.03
2023-02-26T22:29:27.927Z,101108.88
2023-02-26T22:31:56.925Z,101110.22
2023-02-26T22:34:24.185Z,101110.97
2023-02-26T22:36:52.421Z,101104.59
2023-02-26T22:39:19.817Z,101116.53
2023-02-26T22:41:47.547Z,101114.50
2023-02-26T22:44:15.355Z,101115.31
2023-02-26T22:46:42.644Z,101122.81
2023-02-26T22:49:09.923Z,101102.97
2023-02-26T22:51:37.225Z,101126.81
2023-02-26T22:54:04.438Z,101130.97
2023-02-26T22:56:31.984Z,101118.75
2023-02-26T22:58:59.099Z,101133.28
2023-02-26T23:01:26.307Z,101128.16
2023-02-26T23:03:53.417Z,101128.94
2023-02-26T23:06:22.541Z,101132.28
2023-02-26T23:08:53.149Z,101126.97
2023-02-26T23:11:20.642Z,101133.63
2023-02-26T23:13:47.740Z,101136.88
2023-02-26T23:16:15.384Z,101139.28
2023-02-26T23:18:45.723Z,101136.66
2023-02-26T23:21:12.899Z,101142.47
2023-02-26T23:23:40.227Z,101142.41
2023-02-26T23:26:07.754Z,101134.50
2023-02-26T23:28:34.936Z,101135.16
2023-02-26T23:31:02.190Z,101141.34
2023-02-26T23:33:29.539Z,101144.69
2023-02-26T23:35:56.647Z,101142.66
2023-02-26T23:38:23.955Z,101140.00
2023-02-26T23:40:51.210Z,101152.69
2023-02-26T23:43:18.457Z,101152.53
2023-02-26T23:45:45.525Z,101156.66
2023-02-26T23:48:12.772Z,101159.06
2023-02-26T23:50:40.015Z,101164.00
2023-02-26T23:53:07.575Z,101153.84
2023-02-26T23:55:34.805Z,101150.19
2023-02-26T23:58:02.023Z,101165.59
